• Join FlightAware (Why Join?)
  • Login
  • US Flag 
07:06AM EDT


 

Airport Tracker/Info


-or-


 

Live Flight TrackerFlight Track Log ✈ N379B ✈ 18-Oct-2013 ✈ KGBD - KEAR

Flight Track Log - Related Links

Times and Time Zones

All times are in EDT time to prevent confusion due to time zone crossing. See the N379B flight status page for this flight to view local times or setup timezone preferences in your user account.

Time Position Orientation Groundspeed Altitude Reporting Facility
EDT Latitude Longitude Course Direction KTS MPH feet Rate Location/Type
03:09PM 38.4672 -98.8675 357° North 234 269 8,100  Level Kansas City Center
03:10PM 38.5383 -98.8719 357° North 247 284 11,900 3,360 Climbing Kansas City Center
03:11PM 38.6222 -98.8756 358° North 286 329 15,100 2,880 Climbing Kansas City Center
03:12PM 38.7092 -98.8811 357° North 308 354 17,900 2,460 Climbing Kansas City Center
03:13PM 38.8231 -98.8889 357° North 336 387 20,300 1,920 Climbing Kansas City Center
03:14PM 38.9297 -98.8958 357° North 374 430 21,900 780 Climbing Kansas City Center
03:15PM 39.0439 -98.9017 358° North 402 463 22,000  Climbing Kansas City Center
03:16PM 39.1569 -98.9086 357° North 406 467 22,000  Level Kansas City Center
03:17PM 39.2717 -98.9158 357° North 410 472 22,000  Level Kansas City Center
03:18PM 39.3842 -98.9231 357° North 406 467 22,000  Level Kansas City Center
03:19PM 39.4606 -98.9269 358° North 403 464 22,000  Level Denver Center
03:20PM 39.6622 -98.9408 357° North 402 463 22,000  Level Minneapolis Center
03:22PM 39.7961 -98.9506 357° North 400 460 22,000  Level Denver Center
03:22PM 39.8836 -98.9589 356° North 398 458 22,000 -1,320 Level Minneapolis Center
03:24PM 39.9892 -98.9678 356° North 385 443 19,700 -2,220 Descending Minneapolis Center
03:25PM 40.0831 -98.9733 357° North 348 400 17,500 -2,160 Descending Minneapolis Center
03:26PM 40.1694 -98.9819 356° North 319 367 15,300 -2,340 Descending Minneapolis Center
03:27PM 40.2714 -98.9922 356° North 310 357 12,700 -2,100 Descending Minneapolis Center
03:29PM 40.4381 -99.0011 358° North 266 306 8,300 -1,860 Descending Denver Center
03:30PM 40.5061 -99.0061 357° North 249 287 6,500 -1,800 Descending Denver Center
03:31PM 40.5886 -99.0139 356° North 248 285 4,600 -1,440 Descending Denver Center
03:32PM 40.6492 -99.0186 357° North 234 269 3,600 -1,020 Descending Denver Center